This is the latest recevied weather packets stored in our database for station/object W4OTS. If no packets are shown the sender has not sent any weather packets the latest 10 day(s).
| Time | Temp. | Humidity | Pressure | Rain* | Wind** | Luminosity | Snow |
|---|---|---|---|---|---|---|---|
| 1777597773 | 16.11° C | 50% | 1014.2 hPa | 0 mm | - | 0 W/m² | - |
| 1777597469 | 16.11° C | 50% | 1014.1 hPa | 0 mm | - | 0 W/m² | - |
| 1777597164 | 16.11° C | 50% | 1014.1 hPa | 0 mm | - | 0 W/m² | - |
| 1777596861 | 16.67° C | 49% | 1013.6 hPa | 0 mm | - | 0 W/m² | - |
| 1777596557 | 16.67° C | 50% | 1013.8 hPa | 0 mm | - | 0 W/m² | - |
| 1777596254 | 16.67° C | 51% | 1013.6 hPa | 0 mm | - | 0 W/m² | - |
| 1777595951 | 17.22° C | 53% | 1013.3 hPa | 0 mm | - | 0 W/m² | - |
| 1777595651 | 17.22° C | 51% | 1013.6 hPa | 0 mm | - | 0 W/m² | - |
| 1777595347 | 17.22° C | 51% | 1013.5 hPa | 0 mm | - | 0 W/m² | - |
| 1777595043 | 17.22° C | 46% | 1013.3 hPa | 0 mm | - | 0 W/m² | - |
| 1777594740 | 17.78° C | 48% | 1013.2 hPa | 0 mm | - | 0 W/m² | - |
| 1777594437 | 17.22° C | 46% | 1013.2 hPa | 0 mm | - | 0 W/m² | - |
| 1777594132 | 17.78° C | 49% | 1013.2 hPa | 0 mm | - | 0 W/m² | - |
| 1777593828 | 17.78° C | 46% | 1013.2 hPa | 0 mm | - | 3 W/m² | - |
| 1777593525 | 18.33° C | 49% | 1013.1 hPa | 0 mm | - | 3 W/m² | - |
| 1777593219 | 18.33° C | 46% | 1012.9 hPa | 0 mm | - | 6 W/m² | - |
| 1777592918 | 18.89° C | 51% | 1012.9 hPa | 0 mm | - | 8 W/m² | - |
| 1777592614 | 18.89° C | 45% | 1012.9 hPa | 0 mm | - | 12 W/m² | - |
| 1777592310 | 18.89° C | 45% | 1013 hPa | 0 mm | - | 17 W/m² | - |
| 1777592006 | 18.89° C | 46% | 1012.8 hPa | 0 mm | - | 13 W/m² | - |
| 1777591703 | 18.89° C | 47% | 1012.6 hPa | 0 mm | - | 14 W/m² | - |
| 1777591398 | 19.44° C | 47% | 1012.9 hPa | 0 mm | - | 18 W/m² | - |
| 1777591095 | 19.44° C | 44% | 1012.9 hPa | 0 mm | - | 25 W/m² | - |
| 1777590790 | 19.44° C | 43% | 1012.7 hPa | 0 mm | - | 24 W/m² | - |
| 1777590487 | 20° C | 46% | 1012.7 hPa | 0 mm | - | 23 W/m² | - |
* Rain latest hour (hover to see other rain measurements)
** Current wind speed in m/s (hover to see current wind gust speed)